createdAt,value
2022-12-03T00:00:12.918Z,96020.56
2022-12-03T00:03:01.568Z,96025.80
2022-12-03T00:05:29.639Z,96030.77
2022-12-03T00:07:57.712Z,96033.19
2022-12-03T00:10:25.972Z,96030.67
2022-12-03T00:12:53.886Z,96029.48
2022-12-03T00:15:21.743Z,96037.69
2022-12-03T00:17:49.638Z,96040.46
2022-12-03T00:20:19.767Z,96044.11
2022-12-03T00:22:47.746Z,96046.41
2022-12-03T00:25:15.847Z,96050.24
2022-12-03T00:27:43.989Z,96050.05
2022-12-03T00:30:12.711Z,96053.66
2022-12-03T00:32:43.145Z,96047.90
2022-12-03T00:35:11.014Z,96053.58
2022-12-03T00:37:38.897Z,96057.39
2022-12-03T00:40:07.152Z,96059.76
2022-12-03T00:42:35.006Z,96062.35
2022-12-03T00:45:03.225Z,96065.45
2022-12-03T00:47:31.220Z,96066.64
2022-12-03T00:49:59.099Z,96072.48
2022-12-03T00:52:26.956Z,96070.47
2022-12-03T00:54:55.071Z,96069.86
2022-12-03T00:57:23.334Z,96071.34
2022-12-03T00:59:51.304Z,96068.02
2022-12-03T01:02:19.385Z,96065.81
2022-12-03T01:04:47.814Z,96065.17
2022-12-03T01:07:15.867Z,96063.60
2022-12-03T01:09:43.845Z,96059.66
2022-12-03T01:12:12.167Z,96057.92
2022-12-03T01:14:40.432Z,96057.64
2022-12-03T01:17:08.394Z,96060.89
2022-12-03T01:19:36.888Z,96060.79
2022-12-03T01:22:05.075Z,96060.44
2022-12-03T01:24:33.447Z,96058.33
2022-12-03T01:27:01.445Z,96058.04
2022-12-03T01:29:29.448Z,96062.26
2022-12-03T01:32:15.846Z,96060.96
2022-12-03T01:34:44.318Z,96061.82
2022-12-03T01:37:12.189Z,96067.62
2022-12-03T01:39:40.592Z,96063.05
2022-12-03T01:42:11.748Z,96063.90
2022-12-03T01:44:40.844Z,96057.44
2022-12-03T01:47:12.515Z,96059.98
2022-12-03T01:49:52.407Z,96060.20
2022-12-03T01:52:21.787Z,96063.24
2022-12-03T01:54:58.443Z,96058.80
2022-12-03T01:57:28.305Z,96054.67
2022-12-03T01:59:57.903Z,96051.99
2022-12-03T02:02:28.336Z,96043.60
2022-12-03T02:04:56.847Z,96046.86
2022-12-03T02:07:27.988Z,96048.52
2022-12-03T02:09:57.183Z,96053.44
2022-12-03T02:12:28.498Z,96048.89
2022-12-03T02:14:57.030Z,96052.45
2022-12-03T02:17:25.540Z,96051.48
2022-12-03T02:19:54.323Z,96052.52
2022-12-03T02:22:25.277Z,96051.47
2022-12-03T02:24:59.503Z,96055.05
2022-12-03T02:27:28.601Z,96054.58
2022-12-03T02:29:56.788Z,96055.52
2022-12-03T02:32:24.872Z,96056.29
2022-12-03T02:34:52.956Z,96058.61
2022-12-03T02:37:30.307Z,96062.54
2022-12-03T02:40:00.091Z,96063.96
2022-12-03T02:42:35.223Z,96064.98
2022-12-03T02:45:05.413Z,96064.44
2022-12-03T02:47:35.470Z,96066.25
2022-12-03T02:50:03.862Z,96067.27
2022-12-03T02:52:32.583Z,96066.94
2022-12-03T02:55:01.870Z,96069.05
2022-12-03T02:57:29.956Z,96059.06
2022-12-03T02:59:58.035Z,96061.02
2022-12-03T03:02:28.429Z,96058.91
2022-12-03T03:04:57.075Z,96060.00
2022-12-03T03:07:25.076Z,96058.87
2022-12-03T03:09:53.137Z,96052.20
2022-12-03T03:12:20.996Z,96056.46
2022-12-03T03:14:48.915Z,96054.40
2022-12-03T03:17:17.183Z,96057.73
2022-12-03T03:19:45.252Z,96056.89
2022-12-03T03:22:13.176Z,96055.05
2022-12-03T03:24:41.267Z,96052.90
2022-12-03T03:27:09.409Z,96051.12
2022-12-03T03:29:37.362Z,96050.77
2022-12-03T03:32:05.509Z,96050.20
2022-12-03T03:34:34.363Z,96054.21
2022-12-03T03:37:02.455Z,96053.97
2022-12-03T03:39:30.320Z,96054.33
2022-12-03T03:41:58.411Z,96057.63
2022-12-03T03:44:26.507Z,96062.29
2022-12-03T03:46:55.089Z,96066.14
2022-12-03T03:49:23.379Z,96059.82
2022-12-03T03:51:51.269Z,96060.58
2022-12-03T03:54:19.341Z,96056.11
2022-12-03T03:56:48.021Z,96055.94
2022-12-03T03:59:16.101Z,96058.43
2022-12-03T04:01:44.663Z,96062.70
2022-12-03T04:04:19.214Z,96057.99
2022-12-03T04:06:47.688Z,96063.30
2022-12-03T04:09:16.009Z,96064.52
2022-12-03T04:12:02.817Z,96065.07
2022-12-03T04:14:30.905Z,96068.55
2022-12-03T04:16:58.824Z,96067.95
2022-12-03T04:19:26.679Z,96069.11
2022-12-03T04:22:13.473Z,96070.70
2022-12-03T04:24:41.459Z,96072.98
2022-12-03T04:27:28.275Z,96072.65
2022-12-03T04:29:56.252Z,96076.77
2022-12-03T04:32:43.175Z,96075.41
2022-12-03T04:35:29.819Z,96072.80
2022-12-03T04:37:57.727Z,96074.78
2022-12-03T04:40:44.484Z,96077.23
2022-12-03T04:43:13.193Z,96075.20
2022-12-03T04:45:41.085Z,96078.31
2022-12-03T04:48:09.139Z,96070.94
2022-12-03T04:50:37.011Z,96069.65
2022-12-03T04:53:05.087Z,96076.41
2022-12-03T04:55:33.281Z,96075.73
2022-12-03T04:58:01.255Z,96077.83
2022-12-03T05:00:29.132Z,96078.70
2022-12-03T05:02:57.174Z,96080.88
2022-12-03T05:05:25.596Z,96079.83
2022-12-03T05:07:53.664Z,96078.40
2022-12-03T05:10:21.659Z,96078.24
2022-12-03T05:12:49.535Z,96083.43
2022-12-03T05:15:17.816Z,96080.35
2022-12-03T05:17:46.282Z,96079.23
2022-12-03T05:20:33.472Z,96080.00
2022-12-03T05:23:01.524Z,96079.29
2022-12-03T05:25:29.389Z,96083.17
2022-12-03T05:27:57.270Z,96085.72
2022-12-03T05:30:25.636Z,96088.26
2022-12-03T05:32:54.040Z,96086.97
2022-12-03T05:35:21.987Z,96088.61
2022-12-03T05:37:49.888Z,96087.24
2022-12-03T05:40:18.082Z,96088.73
2022-12-03T05:42:55.264Z,96085.02
2022-12-03T05:45:27.441Z,96089.88
2022-12-03T05:47:56.332Z,96089.56
2022-12-03T05:50:27.072Z,96096.67
2022-12-03T05:52:56.644Z,96092.05
2022-12-03T05:55:25.282Z,96091.95
2022-12-03T05:57:53.153Z,96092.34
2022-12-03T06:00:22.682Z,96095.17
2022-12-03T06:02:50.993Z,96097.00
2022-12-03T06:05:22.202Z,96099.84
2022-12-03T06:07:51.362Z,96098.88
2022-12-03T06:10:23.797Z,96104.13
2022-12-03T06:12:52.249Z,96107.38
2022-12-03T06:15:20.873Z,96107.27
2022-12-03T06:17:48.846Z,96108.48
2022-12-03T06:20:17.798Z,96108.66
2022-12-03T06:22:45.899Z,96106.74
2022-12-03T06:25:14.236Z,96108.22
2022-12-03T06:27:42.204Z,96111.81
2022-12-03T06:30:12.581Z,96114.77
2022-12-03T06:32:40.664Z,96113.77
2022-12-03T06:35:08.999Z,96114.44
2022-12-03T06:37:36.876Z,96113.88
2022-12-03T06:40:05.050Z,96113.02
2022-12-03T06:42:32.925Z,96114.70
2022-12-03T06:45:00.911Z,96114.56
2022-12-03T06:47:31.128Z,96116.10
2022-12-03T06:49:59.102Z,96118.54
2022-12-03T06:52:27.207Z,96120.85
2022-12-03T06:54:55.280Z,96125.61
2022-12-03T06:57:23.460Z,96126.85
2022-12-03T06:59:51.476Z,96122.43
2022-12-03T07:02:19.901Z,96126.52
2022-12-03T07:04:48.283Z,96128.59
2022-12-03T07:07:16.179Z,96123.80
2022-12-03T07:09:44.335Z,96118.91
2022-12-03T07:12:12.529Z,96114.33
2022-12-03T07:14:40.414Z,96121.40
2022-12-03T07:17:08.331Z,96122.25
2022-12-03T07:19:36.233Z,96115.41
2022-12-03T07:22:04.322Z,96119.00
2022-12-03T07:24:32.713Z,96122.85
2022-12-03T07:27:00.634Z,96118.89
2022-12-03T07:29:29.696Z,96121.13
2022-12-03T07:31:57.620Z,96122.95
2022-12-03T07:34:25.739Z,96120.56
2022-12-03T07:36:53.683Z,96121.35
2022-12-03T07:39:21.673Z,96118.31
2022-12-03T07:41:49.966Z,96118.59
2022-12-03T07:44:18.045Z,96121.94
2022-12-03T07:46:46.040Z,96121.21
2022-12-03T07:49:14.406Z,96120.51
2022-12-03T07:51:43.100Z,96123.88
2022-12-03T07:54:10.914Z,96127.21
2022-12-03T07:56:38.944Z,96121.25
2022-12-03T07:59:06.890Z,96118.52
2022-12-03T08:01:35.008Z,96117.14
2022-12-03T08:04:03.182Z,96115.33
2022-12-03T08:06:31.443Z,96120.08
2022-12-03T08:08:59.566Z,96118.80
2022-12-03T08:11:30.736Z,96112.70
2022-12-03T08:13:58.967Z,96109.39
2022-12-03T08:16:26.982Z,96111.14
2022-12-03T08:18:57.679Z,96111.09
2022-12-03T08:21:28.213Z,96116.13
2022-12-03T08:23:56.803Z,96118.90
2022-12-03T08:26:26.518Z,96119.83
2022-12-03T08:28:54.907Z,96120.82
2022-12-03T08:31:32.330Z,96118.89
2022-12-03T08:34:20.944Z,96122.21
2022-12-03T08:36:56.424Z,96118.54
2022-12-03T08:39:33.570Z,96119.51
2022-12-03T08:42:23.482Z,96121.09
2022-12-03T08:44:52.824Z,96124.39
2022-12-03T08:47:24.581Z,96118.41
2022-12-03T08:49:58.242Z,96115.31
2022-12-03T08:52:30.684Z,96119.48
2022-12-03T08:54:58.986Z,96122.02
2022-12-03T08:57:28.791Z,96118.75
2022-12-03T09:00:01.265Z,96118.85
2022-12-03T09:02:32.513Z,96117.94
2022-12-03T09:05:18.807Z,96118.13
2022-12-03T09:07:46.678Z,96115.41
2022-12-03T09:10:14.939Z,96109.67
2022-12-03T09:12:43.103Z,96110.11
2022-12-03T09:15:11.496Z,96103.55
2022-12-03T09:17:39.768Z,96101.15
2022-12-03T09:20:08.109Z,96102.70
2022-12-03T09:22:36.111Z,96100.05
2022-12-03T09:25:04.513Z,96101.23
2022-12-03T09:27:32.795Z,96100.70
2022-12-03T09:30:00.769Z,96101.32
2022-12-03T09:32:29.118Z,96104.28
2022-12-03T09:34:57.502Z,96105.42
2022-12-03T09:37:25.747Z,96104.62
2022-12-03T09:39:53.642Z,96105.08
2022-12-03T09:42:21.607Z,96105.33
2022-12-03T09:44:49.620Z,96101.17
2022-12-03T09:47:18.015Z,96101.23
2022-12-03T09:49:45.991Z,96101.02
2022-12-03T09:52:19.812Z,96099.25
2022-12-03T09:54:47.883Z,96097.51
2022-12-03T09:57:16.943Z,96094.05
2022-12-03T09:59:45.222Z,96094.23
2022-12-03T10:02:21.421Z,96100.59
2022-12-03T10:04:49.558Z,96097.56
2022-12-03T10:07:17.867Z,96096.02
2022-12-03T10:09:45.926Z,96096.89
2022-12-03T10:12:14.432Z,96094.02
2022-12-03T10:14:43.008Z,96092.58
2022-12-03T10:17:12.196Z,96092.59
2022-12-03T10:19:42.893Z,96093.64
2022-12-03T10:22:10.887Z,96092.49
2022-12-03T10:24:39.140Z,96086.84
2022-12-03T10:27:22.592Z,96088.73
2022-12-03T10:29:58.081Z,96084.33
2022-12-03T10:32:46.479Z,96082.91
2022-12-03T10:35:20.095Z,96081.83
2022-12-03T10:38:07.619Z,96082.47
2022-12-03T10:40:36.621Z,96081.25
2022-12-03T10:43:13.499Z,96076.35
2022-12-03T10:45:42.227Z,96076.60
2022-12-03T10:48:21.118Z,96072.36
2022-12-03T10:50:50.443Z,96070.30
2022-12-03T10:53:18.948Z,96070.43
2022-12-03T10:55:47.825Z,96070.39
2022-12-03T10:58:19.179Z,96066.18
2022-12-03T11:00:47.871Z,96067.75
2022-12-03T11:03:17.881Z,96068.34
2022-12-03T11:05:46.279Z,96065.30
2022-12-03T11:08:18.735Z,96068.30
2022-12-03T11:10:56.091Z,96064.98
2022-12-03T11:13:28.536Z,96061.55
2022-12-03T11:15:56.954Z,96060.94
2022-12-03T11:18:37.589Z,96060.21
2022-12-03T11:21:05.875Z,96063.70
2022-12-03T11:23:56.786Z,96064.23
2022-12-03T11:26:31.414Z,96059.65
2022-12-03T11:28:59.798Z,96056.92
2022-12-03T11:31:40.202Z,96054.41
2022-12-03T11:34:20.680Z,96056.45
2022-12-03T11:37:11.964Z,96050.21
2022-12-03T11:39:52.867Z,96045.77
2022-12-03T11:42:27.258Z,96046.42
2022-12-03T11:45:04.581Z,96049.33
2022-12-03T11:47:52.910Z,96049.83
2022-12-03T11:50:23.854Z,96052.88
2022-12-03T11:52:55.315Z,96053.48
2022-12-03T11:55:29.840Z,96048.60
2022-12-03T11:57:58.996Z,96049.19
2022-12-03T12:00:27.547Z,96048.98
2022-12-03T12:02:57.287Z,96045.50
2022-12-03T12:05:25.293Z,96044.55
2022-12-03T12:07:53.982Z,96048.44
2022-12-03T12:10:41.065Z,96046.77
2022-12-03T12:13:28.004Z,96048.55
2022-12-03T12:15:59.804Z,96039.77
2022-12-03T12:18:35.387Z,96038.27
2022-12-03T12:21:22.087Z,96038.49
2022-12-03T12:23:50.078Z,96035.27
2022-12-03T12:26:18.070Z,96039.77
2022-12-03T12:28:46.131Z,96045.36
2022-12-03T12:31:14.047Z,96046.94
2022-12-03T12:33:42.085Z,96044.57
2022-12-03T12:36:10.265Z,96047.71
2022-12-03T12:38:38.234Z,96049.91
2022-12-03T12:41:08.075Z,96048.69
2022-12-03T12:43:38.900Z,96047.08
2022-12-03T12:46:46.083Z,96047.20
2022-12-03T12:49:01.786Z,96052.02
2022-12-03T12:51:29.639Z,96049.36
2022-12-03T12:53:57.529Z,96046.74
2022-12-03T12:56:32.175Z,96044.63
2022-12-03T12:59:11.194Z,96046.70
2022-12-03T13:01:39.456Z,96052.27
2022-12-03T13:04:12.059Z,96050.12
2022-12-03T13:06:40.268Z,96048.86
2022-12-03T13:09:16.218Z,96052.64
2022-12-03T13:11:47.953Z,96055.88
2022-12-03T13:14:18.823Z,96053.95
2022-12-03T13:16:48.060Z,96053.96
2022-12-03T13:19:19.268Z,96052.77
2022-12-03T13:21:47.160Z,96053.61
2022-12-03T13:24:30.812Z,96055.79
2022-12-03T13:27:31.954Z,96055.83
2022-12-03T13:30:01.584Z,96053.64
2022-12-03T13:32:41.488Z,96057.20
2022-12-03T13:35:12.353Z,96057.10
2022-12-03T13:37:40.354Z,96058.65
2022-12-03T13:40:12.637Z,96063.25
2022-12-03T13:42:42.408Z,96061.17
2022-12-03T13:45:13.582Z,96063.79
2022-12-03T13:47:42.376Z,96063.83
2022-12-03T13:50:22.688Z,96065.23
2022-12-03T13:52:51.756Z,96065.78
2022-12-03T13:55:24.995Z,96063.73
2022-12-03T13:57:53.391Z,96064.74
2022-12-03T14:00:21.360Z,96066.33
2022-12-03T14:02:49.631Z,96067.74
2022-12-03T14:05:17.782Z,96069.48
2022-12-03T14:07:45.846Z,96069.27
2022-12-03T14:10:13.883Z,96075.02
2022-12-03T14:12:42.146Z,96077.61
2022-12-03T14:15:12.930Z,96081.09
2022-12-03T14:17:41.417Z,96084.23
2022-12-03T14:20:09.919Z,96084.46
2022-12-03T14:22:38.245Z,96088.55
2022-12-03T14:25:06.781Z,96086.20
2022-12-03T14:27:34.759Z,96084.34
2022-12-03T14:30:05.706Z,96086.98
2022-12-03T14:32:33.882Z,96086.81
2022-12-03T14:35:05.276Z,96089.04
2022-12-03T14:37:36.308Z,96085.63
2022-12-03T14:40:07.252Z,96089.27
2022-12-03T14:42:36.565Z,96092.34
2022-12-03T14:45:05.959Z,96093.23
2022-12-03T14:47:34.152Z,96091.63
2022-12-03T14:50:02.193Z,96093.40
2022-12-03T14:52:30.206Z,96095.61
2022-12-03T14:54:58.170Z,96098.14
2022-12-03T14:57:26.254Z,96100.68
2022-12-03T14:59:54.602Z,96102.10
2022-12-03T15:02:22.968Z,96102.34
2022-12-03T15:04:51.104Z,96104.98
2022-12-03T15:07:18.968Z,96106.49
2022-12-03T15:09:47.036Z,96102.20
2022-12-03T15:12:15.245Z,96104.42
2022-12-03T15:14:43.321Z,96108.86
2022-12-03T15:17:11.215Z,96107.00
2022-12-03T15:19:39.277Z,96111.14
2022-12-03T15:22:07.251Z,96111.64
2022-12-03T15:24:35.234Z,96111.37
2022-12-03T15:27:03.200Z,96110.98
2022-12-03T15:29:32.915Z,96115.73
2022-12-03T15:32:03.223Z,96114.30
2022-12-03T15:34:31.218Z,96117.63
2022-12-03T15:36:59.299Z,96116.82
2022-12-03T15:39:27.165Z,96120.46
2022-12-03T15:41:55.151Z,96119.52
2022-12-03T15:44:23.129Z,96119.78
2022-12-03T15:46:51.104Z,96121.08
2022-12-03T15:49:20.209Z,96118.63
2022-12-03T15:51:48.080Z,96119.87
2022-12-03T15:54:15.952Z,96117.86
2022-12-03T15:56:44.031Z,96125.29
2022-12-03T15:59:13.233Z,96126.70
2022-12-03T16:01:41.251Z,96125.25
2022-12-03T16:04:09.289Z,96125.96
2022-12-03T16:06:37.266Z,96126.17
2022-12-03T16:09:05.288Z,96131.23
2022-12-03T16:11:33.324Z,96134.58
2022-12-03T16:14:01.302Z,96136.83
2022-12-03T16:16:29.295Z,96135.91
2022-12-03T16:18:57.919Z,96139.07
2022-12-03T16:21:27.256Z,96136.92
2022-12-03T16:23:55.823Z,96140.42
2022-12-03T16:26:24.581Z,96131.08
2022-12-03T16:28:52.942Z,96139.17
2022-12-03T16:31:21.821Z,96140.68
2022-12-03T16:33:50.337Z,96144.05
2022-12-03T16:36:18.326Z,96140.66
2022-12-03T16:38:46.291Z,96136.66
2022-12-03T16:41:14.212Z,96139.22
2022-12-03T16:43:45.624Z,96139.52
2022-12-03T16:46:16.482Z,96138.98
2022-12-03T16:48:44.551Z,96140.85
2022-12-03T16:51:12.527Z,96139.72
2022-12-03T16:53:40.427Z,96132.89
2022-12-03T16:56:08.888Z,96133.55
2022-12-03T16:58:36.875Z,96137.56
2022-12-03T17:01:04.842Z,96137.02
2022-12-03T17:03:34.260Z,96139.77
2022-12-03T17:06:02.852Z,96141.56
2022-12-03T17:08:31.241Z,96142.33
2022-12-03T17:10:59.193Z,96142.84
2022-12-03T17:13:27.234Z,96143.96
2022-12-03T17:15:55.207Z,96146.41
2022-12-03T17:18:24.091Z,96151.94
2022-12-03T17:20:52.039Z,96151.73
2022-12-03T17:23:20.040Z,96153.61
2022-12-03T17:25:47.956Z,96157.33
2022-12-03T17:28:16.079Z,96155.11
2022-12-03T17:30:44.484Z,96152.92
2022-12-03T17:33:12.756Z,96160.52
2022-12-03T17:35:41.553Z,96162.86
2022-12-03T17:38:09.758Z,96160.58
2022-12-03T17:40:37.715Z,96159.86
2022-12-03T17:43:05.643Z,96161.02
2022-12-03T17:45:33.673Z,96162.42
2022-12-03T17:48:01.844Z,96160.20
2022-12-03T17:50:29.830Z,96163.63
2022-12-03T17:52:58.218Z,96166.70
2022-12-03T17:55:34.595Z,96164.16
2022-12-03T17:58:05.436Z,96164.12
2022-12-03T18:00:34.130Z,96165.94
2022-12-03T18:03:02.066Z,96163.83
2022-12-03T18:05:30.093Z,96161.59
2022-12-03T18:07:58.332Z,96159.59
2022-12-03T18:10:26.350Z,96162.91
2022-12-03T18:12:59.895Z,96162.66
2022-12-03T18:15:30.089Z,96164.15
2022-12-03T18:17:58.132Z,96163.60
2022-12-03T18:20:26.198Z,96160.27
2022-12-03T18:22:54.103Z,96164.23
2022-12-03T18:25:22.183Z,96163.57
2022-12-03T18:27:50.385Z,96164.27
2022-12-03T18:30:18.590Z,96159.82
2022-12-03T18:32:47.910Z,96160.60
2022-12-03T18:35:15.856Z,96164.00
2022-12-03T18:37:43.834Z,96163.66
2022-12-03T18:40:17.873Z,96164.28
2022-12-03T18:42:46.135Z,96166.67
2022-12-03T18:45:15.050Z,96167.54
2022-12-03T18:47:43.393Z,96167.02
2022-12-03T18:50:11.805Z,96166.00
2022-12-03T18:52:40.093Z,96166.73
2022-12-03T18:55:08.372Z,96169.67
2022-12-03T18:57:36.253Z,96164.58
2022-12-03T19:00:11.804Z,96163.84
2022-12-03T19:05:30.000Z,96161.48
2022-12-03T19:07:58.060Z,96163.64
2022-12-03T19:10:26.154Z,96165.00
2022-12-03T19:12:54.231Z,96163.71
2022-12-03T19:15:23.114Z,96165.54
2022-12-03T19:17:51.322Z,96164.11
2022-12-03T19:20:19.411Z,96164.79
2022-12-03T19:22:47.346Z,96165.98
2022-12-03T19:25:15.205Z,96166.15
2022-12-03T19:27:43.088Z,96164.67
2022-12-03T19:30:11.604Z,96167.41
2022-12-03T19:32:39.684Z,96171.30
2022-12-03T19:35:07.967Z,96168.54
2022-12-03T19:37:35.828Z,96170.49
2022-12-03T19:40:03.844Z,96169.08
2022-12-03T19:42:31.902Z,96166.84
2022-12-03T19:45:00.207Z,96167.71
2022-12-03T19:47:28.238Z,96168.63
2022-12-03T19:49:56.540Z,96172.09
2022-12-03T19:52:24.946Z,96172.77
2022-12-03T19:54:53.230Z,96171.10
2022-12-03T19:57:23.517Z,96175.07
2022-12-03T19:59:52.037Z,96179.98
2022-12-03T20:02:20.293Z,96172.89
2022-12-03T20:04:48.524Z,96175.40
2022-12-03T20:07:16.605Z,96178.00
2022-12-03T20:09:44.478Z,96177.86
2022-12-03T20:12:12.472Z,96176.97
2022-12-03T20:14:40.430Z,96174.28
2022-12-03T20:17:08.585Z,96180.98
2022-12-03T20:19:36.715Z,96176.63
2022-12-03T20:22:04.663Z,96174.40
2022-12-03T20:24:32.512Z,96171.69
2022-12-03T20:27:00.508Z,96176.11
2022-12-03T20:29:28.585Z,96174.60
2022-12-03T20:31:56.639Z,96175.41
2022-12-03T20:34:24.533Z,96175.34
2022-12-03T20:36:52.823Z,96176.17
2022-12-03T20:39:20.835Z,96171.98
2022-12-03T20:41:48.973Z,96176.27
2022-12-03T20:44:16.821Z,96176.34
2022-12-03T20:46:44.985Z,96179.82
2022-12-03T20:49:13.219Z,96179.17
2022-12-03T20:51:42.632Z,96175.14
2022-12-03T20:54:10.616Z,96176.23
2022-12-03T20:56:39.547Z,96178.76
2022-12-03T20:59:08.821Z,96178.16
2022-12-03T21:01:38.558Z,96177.77
2022-12-03T21:04:07.578Z,96177.89
2022-12-03T21:06:37.066Z,96173.45
2022-12-03T21:09:06.534Z,96172.61
2022-12-03T21:11:36.187Z,96170.41
2022-12-03T21:14:05.205Z,96174.11
2022-12-03T21:17:06.101Z,96177.05
2022-12-03T21:19:23.376Z,96180.07
2022-12-03T21:21:51.298Z,96180.19
2022-12-03T21:24:19.235Z,96183.11
2022-12-03T21:26:47.208Z,96186.46
2022-12-03T21:29:15.094Z,96187.00
2022-12-03T21:31:43.010Z,96187.91
2022-12-03T21:34:10.944Z,96185.17
2022-12-03T21:36:39.736Z,96185.93
2022-12-03T21:39:08.136Z,96178.83
2022-12-03T21:41:36.405Z,96177.11
2022-12-03T21:44:04.416Z,96179.11
2022-12-03T21:47:12.968Z,96182.54
2022-12-03T21:49:20.564Z,96178.64
2022-12-03T21:51:49.082Z,96176.45
2022-12-03T21:54:17.321Z,96178.55
2022-12-03T21:56:45.202Z,96177.49
2022-12-03T21:59:13.143Z,96172.61
2022-12-03T22:01:46.737Z,96172.56
2022-12-03T22:04:15.242Z,96169.84
2022-12-03T22:06:43.211Z,96167.02
2022-12-03T22:09:11.258Z,96164.34
2022-12-03T22:11:39.406Z,96164.49
2022-12-03T22:14:08.695Z,96162.23
2022-12-03T22:16:36.651Z,96164.68
2022-12-03T22:19:04.676Z,96161.92
2022-12-03T22:21:32.834Z,96166.05
2022-12-03T22:24:00.631Z,96164.50
2022-12-03T22:26:28.793Z,96169.58
2022-12-03T22:28:56.669Z,96169.34
2022-12-03T22:31:24.680Z,96168.66
2022-12-03T22:33:52.597Z,96170.57
2022-12-03T22:36:21.873Z,96172.52
2022-12-03T22:38:50.937Z,96169.68
2022-12-03T22:41:19.618Z,96169.81
2022-12-03T22:43:48.351Z,96166.57
2022-12-03T22:46:17.046Z,96171.23
2022-12-03T22:48:46.257Z,96173.84
2022-12-03T22:51:15.610Z,96170.27
2022-12-03T22:53:43.807Z,96164.95
2022-12-03T22:56:11.746Z,96165.90
2022-12-03T22:58:41.155Z,96167.11
2022-12-03T23:01:09.131Z,96162.66
2022-12-03T23:03:37.383Z,96162.70
2022-12-03T23:06:11.954Z,96160.74
2022-12-03T23:08:39.895Z,96158.69
2022-12-03T23:11:07.762Z,96151.66
2022-12-03T23:13:35.983Z,96154.70
2022-12-03T23:16:04.406Z,96149.31
2022-12-03T23:18:32.668Z,96147.20
2022-12-03T23:21:00.682Z,96147.23
2022-12-03T23:23:28.616Z,96151.89
2022-12-03T23:26:00.515Z,96152.48
2022-12-03T23:28:29.293Z,96148.56
2022-12-03T23:30:57.217Z,96153.95
2022-12-03T23:33:25.665Z,96150.62
2022-12-03T23:35:53.944Z,96146.73
2022-12-03T23:38:22.221Z,96149.02
2022-12-03T23:40:52.963Z,96149.79
2022-12-03T23:43:21.449Z,96147.66
2022-12-03T23:45:49.425Z,96149.17
2022-12-03T23:48:17.505Z,96147.90
2022-12-03T23:50:45.584Z,96150.17
2022-12-03T23:53:13.421Z,96150.73
2022-12-03T23:55:41.653Z,96155.16
2022-12-03T23:58:09.528Z,96152.27
